createdAt,value
2023-03-27T00:01:57.180Z,2.00
2023-03-27T00:04:23.886Z,1.80
2023-03-27T00:07:12.660Z,1.50
2023-03-27T00:09:39.279Z,1.80
2023-03-27T00:12:06.318Z,1.70
2023-03-27T00:14:33.085Z,1.85
2023-03-27T00:17:03.794Z,1.80
2023-03-27T00:19:38.593Z,1.33
2023-03-27T00:22:07.466Z,1.77
2023-03-27T00:24:34.361Z,1.42
2023-03-27T00:27:01.229Z,1.67
2023-03-27T00:29:37.401Z,1.67
2023-03-27T00:32:07.294Z,1.70
2023-03-27T00:34:36.132Z,2.15
2023-03-27T00:37:15.130Z,1.67
2023-03-27T00:39:43.399Z,2.40
2023-03-27T00:42:16.390Z,2.13
2023-03-27T00:44:43.067Z,1.52
2023-03-27T00:47:14.783Z,1.73
2023-03-27T00:49:53.978Z,1.73
2023-03-27T00:52:29.236Z,1.52
2023-03-27T00:55:04.774Z,1.65
2023-03-27T00:57:33.052Z,2.45
2023-03-27T01:00:02.122Z,1.88
2023-03-27T01:02:32.628Z,1.80
2023-03-27T01:05:01.668Z,1.88
2023-03-27T01:07:28.860Z,2.03
2023-03-27T01:09:56.254Z,1.75
2023-03-27T01:12:56.792Z,2.08
2023-03-27T01:15:34.893Z,1.52
2023-03-27T01:18:32.430Z,2.00
2023-03-27T01:21:51.777Z,1.52
2023-03-27T01:24:52.565Z,1.60
2023-03-27T01:27:40.852Z,1.85
2023-03-27T01:30:23.613Z,1.10
2023-03-27T01:33:19.932Z,2.20
2023-03-27T01:36:05.394Z,1.40
2023-03-27T01:39:08.982Z,1.55
2023-03-27T01:42:05.792Z,1.08
2023-03-27T01:44:44.537Z,2.35
2023-03-27T01:47:36.295Z,1.88
2023-03-27T01:50:18.176Z,1.33
2023-03-27T01:52:52.613Z,1.65
2023-03-27T01:55:27.846Z,1.25
2023-03-27T01:58:07.449Z,1.98
2023-03-27T02:00:52.194Z,1.52
2023-03-27T02:03:49.020Z,2.13
2023-03-27T02:09:03.751Z,1.30
2023-03-27T02:11:37.633Z,1.33
2023-03-27T02:14:19.339Z,1.95
2023-03-27T02:17:02.387Z,2.35
2023-03-27T02:19:35.829Z,1.65
2023-03-27T02:22:03.327Z,2.13
2023-03-27T02:24:38.805Z,1.80
2023-03-27T02:27:35.980Z,2.83
2023-03-27T02:30:08.618Z,1.85
2023-03-27T02:32:47.899Z,1.38
2023-03-27T02:35:41.868Z,1.75
2023-03-27T02:38:19.357Z,1.30
2023-03-27T02:41:07.120Z,1.73
2023-03-27T02:44:02.032Z,1.40
2023-03-27T02:46:58.275Z,1.73
2023-03-27T02:49:43.915Z,1.58
2023-03-27T02:52:22.127Z,2.03
2023-03-27T02:54:59.066Z,1.63
2023-03-27T02:57:32.615Z,1.80
2023-03-27T03:00:25.807Z,1.95
2023-03-27T03:03:30.310Z,2.20
2023-03-27T03:06:15.323Z,1.85
2023-03-27T03:08:43.122Z,1.48
2023-03-27T03:11:14.161Z,1.48
2023-03-27T03:13:43.279Z,1.42
2023-03-27T03:16:10.360Z,1.33
2023-03-27T03:18:41.867Z,1.88
2023-03-27T03:21:08.447Z,1.70
2023-03-27T03:23:35.166Z,1.70
2023-03-27T03:26:02.985Z,2.05
2023-03-27T03:28:43.055Z,1.80
2023-03-27T03:31:43.588Z,1.90
2023-03-27T03:34:15.740Z,1.45
2023-03-27T03:36:45.881Z,1.63
2023-03-27T03:39:18.554Z,1.38
2023-03-27T03:41:52.147Z,1.70
2023-03-27T03:44:28.530Z,2.03
2023-03-27T03:46:58.661Z,2.03
2023-03-27T03:49:27.552Z,1.88
2023-03-27T03:52:05.271Z,1.73
2023-03-27T03:54:36.509Z,1.80
2023-03-27T03:57:05.676Z,1.65
2023-03-27T03:59:36.515Z,2.83
2023-03-27T04:02:38.398Z,2.13
2023-03-27T04:05:14.287Z,1.40
2023-03-27T04:07:45.482Z,1.83
2023-03-27T04:10:35.572Z,1.88
2023-03-27T04:13:12.230Z,1.55
2023-03-27T04:15:48.590Z,1.45
2023-03-27T04:18:39.085Z,1.25
2023-03-27T04:21:14.246Z,2.15
2023-03-27T04:23:49.678Z,1.70
2023-03-27T04:26:27.036Z,1.75
2023-03-27T04:29:22.101Z,1.35
2023-03-27T04:32:01.124Z,1.30
2023-03-27T04:34:40.657Z,1.20
2023-03-27T04:37:27.756Z,1.77
2023-03-27T04:40:06.750Z,2.03
2023-03-27T04:42:33.352Z,1.27
2023-03-27T04:45:01.417Z,1.02
2023-03-27T04:47:28.194Z,1.42
2023-03-27T04:50:00.727Z,1.23
2023-03-27T04:52:29.458Z,1.90
2023-03-27T04:54:58.769Z,1.40
2023-03-27T04:57:28.544Z,1.58
2023-03-27T05:00:02.338Z,0.80
2023-03-27T05:03:07.632Z,1.48
2023-03-27T05:05:47.528Z,1.63
2023-03-27T05:08:14.123Z,1.52
2023-03-27T05:10:42.387Z,1.17
2023-03-27T05:13:10.675Z,1.50
2023-03-27T05:15:38.895Z,0.93
2023-03-27T05:18:08.852Z,1.30
2023-03-27T05:20:36.633Z,1.73
2023-03-27T05:23:08.047Z,1.05
2023-03-27T05:25:39.215Z,1.38
2023-03-27T05:28:11.008Z,1.38
2023-03-27T05:30:42.824Z,1.63
2023-03-27T05:33:18.544Z,1.20
2023-03-27T05:35:47.223Z,1.50
2023-03-27T05:38:15.326Z,1.55
2023-03-27T05:41:02.071Z,1.58
2023-03-27T05:43:30.742Z,1.52
2023-03-27T05:45:57.700Z,1.40
2023-03-27T05:48:24.651Z,1.45
2023-03-27T05:50:51.207Z,2.10
2023-03-27T05:53:28.438Z,1.70
2023-03-27T05:56:18.717Z,1.65
2023-03-27T05:58:54.185Z,1.70
2023-03-27T06:01:23.411Z,1.40
2023-03-27T06:03:55.893Z,2.42
2023-03-27T06:06:39.148Z,1.77
2023-03-27T06:09:05.750Z,2.17
2023-03-27T06:11:36.287Z,2.00
2023-03-27T06:14:03.957Z,2.30
2023-03-27T06:16:46.501Z,1.85
2023-03-27T06:19:33.057Z,2.15
2023-03-27T06:21:59.659Z,2.33
2023-03-27T06:24:26.277Z,1.65
2023-03-27T06:26:52.962Z,2.08
2023-03-27T06:29:21.061Z,2.30
2023-03-27T06:31:50.850Z,2.45
2023-03-27T06:34:29.136Z,2.42
2023-03-27T06:37:04.351Z,1.92
2023-03-27T06:39:40.358Z,3.08
2023-03-27T06:42:07.199Z,2.53
2023-03-27T06:44:36.757Z,2.28
2023-03-27T06:47:22.206Z,2.58
2023-03-27T06:50:09.080Z,2.33
2023-03-27T06:52:36.942Z,2.58
2023-03-27T06:55:28.083Z,2.17
2023-03-27T06:57:58.195Z,2.30
2023-03-27T07:00:28.786Z,2.38
2023-03-27T07:03:32.988Z,1.98
2023-03-27T07:06:19.187Z,2.15
2023-03-27T07:08:51.557Z,2.67
2023-03-27T07:11:19.192Z,2.55
2023-03-27T07:13:57.586Z,1.92
2023-03-27T07:16:27.050Z,2.08
2023-03-27T07:18:54.125Z,2.35
2023-03-27T07:21:21.020Z,1.85
2023-03-27T07:23:50.206Z,2.20
2023-03-27T07:26:29.925Z,2.13
2023-03-27T07:29:00.847Z,2.05
2023-03-27T07:31:41.970Z,2.28
2023-03-27T07:34:17.712Z,2.47
2023-03-27T07:37:02.925Z,1.70
2023-03-27T07:39:31.808Z,2.05
2023-03-27T07:42:00.664Z,1.65
2023-03-27T07:44:33.095Z,1.95
2023-03-27T07:47:04.088Z,2.10
2023-03-27T07:49:39.885Z,1.98
2023-03-27T07:52:09.070Z,1.77
2023-03-27T07:54:42.973Z,2.00
2023-03-27T07:57:11.214Z,1.67
2023-03-27T07:59:52.598Z,1.77
2023-03-27T08:02:27.583Z,1.55
2023-03-27T08:04:55.128Z,1.60
2023-03-27T08:07:25.408Z,1.95
2023-03-27T08:09:57.337Z,1.75
2023-03-27T08:12:24.183Z,2.03
2023-03-27T08:14:57.394Z,1.92
2023-03-27T08:17:27.559Z,2.30
2023-03-27T08:19:55.336Z,1.98
2023-03-27T08:22:23.594Z,2.10
2023-03-27T08:25:13.373Z,2.40
2023-03-27T08:27:43.349Z,2.10
2023-03-27T08:30:12.499Z,1.80
2023-03-27T08:32:41.580Z,1.48
2023-03-27T08:35:13.387Z,1.63
2023-03-27T08:37:41.414Z,2.05
2023-03-27T08:40:33.882Z,2.08
2023-03-27T08:43:28.688Z,1.73
2023-03-27T08:46:08.149Z,2.08
2023-03-27T08:48:53.319Z,2.20
2023-03-27T08:51:44.023Z,1.52
2023-03-27T08:54:24.215Z,1.83
2023-03-27T08:56:51.419Z,1.00
2023-03-27T08:59:21.060Z,1.50
2023-03-27T09:02:14.391Z,1.23
2023-03-27T09:05:04.394Z,1.55
2023-03-27T09:07:57.727Z,1.15
2023-03-27T09:10:49.446Z,1.02
2023-03-27T09:13:43.083Z,1.15
2023-03-27T09:16:18.290Z,1.25
2023-03-27T09:19:01.336Z,1.80
2023-03-27T09:21:43.199Z,1.33
2023-03-27T09:24:28.090Z,1.48
2023-03-27T09:27:29.570Z,1.27
2023-03-27T09:30:10.881Z,1.20
2023-03-27T09:32:48.362Z,1.50
2023-03-27T09:35:17.861Z,1.33
2023-03-27T09:37:46.528Z,1.40
2023-03-27T09:40:23.438Z,1.40
2023-03-27T09:42:54.483Z,1.20
2023-03-27T09:45:22.061Z,1.35
2023-03-27T09:48:02.073Z,1.27
2023-03-27T09:50:47.244Z,1.10
2023-03-27T09:53:38.976Z,1.52
2023-03-27T09:56:18.882Z,1.20
2023-03-27T09:58:53.825Z,1.63
2023-03-27T10:01:24.983Z,1.00
2023-03-27T10:03:57.089Z,1.17
2023-03-27T10:06:51.225Z,0.88
2023-03-27T10:09:34.263Z,1.30
2023-03-27T10:14:39.279Z,1.40
2023-03-27T10:19:38.990Z,0.93
2023-03-27T10:22:22.685Z,0.80
2023-03-27T10:24:49.489Z,0.70
2023-03-27T10:27:40.360Z,0.75
2023-03-27T10:30:37.842Z,0.82
2023-03-27T10:33:39.821Z,1.00
2023-03-27T10:36:13.245Z,1.00
2023-03-27T10:38:41.639Z,1.30
2023-03-27T10:41:29.478Z,0.98
2023-03-27T10:43:59.571Z,0.85
2023-03-27T10:46:28.861Z,1.00
2023-03-27T10:49:28.639Z,0.63
2023-03-27T10:52:16.760Z,0.70
2023-03-27T10:55:23.161Z,0.60
2023-03-27T10:57:56.632Z,0.52
2023-03-27T11:00:59.351Z,0.60
2023-03-27T11:04:08.938Z,0.50
2023-03-27T11:06:47.849Z,0.63
2023-03-27T11:09:34.612Z,0.77
2023-03-27T11:12:11.412Z,0.93
2023-03-27T11:15:02.346Z,0.63
2023-03-27T11:17:41.699Z,0.75
2023-03-27T11:20:26.435Z,0.80
2023-03-27T11:23:20.795Z,0.98
2023-03-27T11:26:12.267Z,0.73
2023-03-27T11:28:53.993Z,0.70
2023-03-27T11:31:37.930Z,0.68
2023-03-27T11:34:34.177Z,0.82
2023-03-27T11:37:30.493Z,0.60
2023-03-27T11:40:00.624Z,0.75
2023-03-27T11:42:30.879Z,0.70
2023-03-27T11:44:58.770Z,0.60
2023-03-27T11:47:49.840Z,0.60
2023-03-27T11:50:26.048Z,0.50
2023-03-27T11:53:09.272Z,0.50
2023-03-27T11:56:10.160Z,0.75
2023-03-27T11:58:58.110Z,0.70
2023-03-27T12:01:51.252Z,0.70
2023-03-27T12:04:52.051Z,0.88
2023-03-27T12:07:40.581Z,0.60
2023-03-27T12:10:29.074Z,0.40
2023-03-27T12:13:55.050Z,1.02
2023-03-27T12:16:46.060Z,0.70
2023-03-27T12:19:45.728Z,0.80
2023-03-27T12:22:27.086Z,0.77
2023-03-27T12:25:19.944Z,0.68
2023-03-27T12:28:08.436Z,0.73
2023-03-27T12:30:56.752Z,0.70
2023-03-27T12:33:59.100Z,0.57
2023-03-27T12:36:30.812Z,0.63
2023-03-27T12:39:00.373Z,1.00
2023-03-27T12:41:33.443Z,0.68
2023-03-27T12:44:06.175Z,1.38
2023-03-27T12:46:39.273Z,0.70
2023-03-27T12:49:07.461Z,0.80
2023-03-27T12:51:53.643Z,0.75
2023-03-27T12:54:39.343Z,0.70
2023-03-27T12:57:26.066Z,0.50
2023-03-27T13:00:00.074Z,0.40
2023-03-27T13:03:13.809Z,0.50
2023-03-27T13:05:50.262Z,0.75
2023-03-27T13:08:45.610Z,0.60
2023-03-27T13:11:35.077Z,0.85
2023-03-27T13:14:39.333Z,0.57
2023-03-27T13:17:29.425Z,0.73
2023-03-27T13:20:30.326Z,0.50
2023-03-27T13:23:23.471Z,0.60
2023-03-27T13:28:31.819Z,0.90
2023-03-27T13:31:58.200Z,1.10
2023-03-27T13:34:42.291Z,0.68
2023-03-27T13:37:14.165Z,1.05
2023-03-27T13:39:55.708Z,0.55
2023-03-27T13:42:39.787Z,0.50
2023-03-27T13:45:18.045Z,0.60
2023-03-27T13:48:07.698Z,0.88
2023-03-27T13:51:06.296Z,0.98
2023-03-27T13:53:44.493Z,1.10
2023-03-27T13:57:05.361Z,0.50
2023-03-27T14:00:06.171Z,0.80
2023-03-27T14:03:14.648Z,0.70
2023-03-27T14:06:05.193Z,0.80
2023-03-27T14:09:00.161Z,0.47
2023-03-27T14:11:53.533Z,0.50
2023-03-27T14:15:25.155Z,0.73
2023-03-27T14:18:38.099Z,0.80
2023-03-27T14:21:09.848Z,0.40
2023-03-27T14:24:02.310Z,0.40
2023-03-27T14:26:41.686Z,0.38
2023-03-27T14:29:15.286Z,0.40
2023-03-27T14:31:46.139Z,0.57
2023-03-27T14:34:30.347Z,0.55
2023-03-27T14:37:31.079Z,0.68
2023-03-27T14:40:17.477Z,0.80
2023-03-27T14:42:49.286Z,0.80
2023-03-27T14:45:20.079Z,0.80
2023-03-27T14:47:50.867Z,0.50
2023-03-27T14:50:18.276Z,0.50
2023-03-27T14:52:50.260Z,0.70
2023-03-27T14:55:21.930Z,0.63
2023-03-27T14:58:10.935Z,0.90
2023-03-27T15:00:40.473Z,0.60
2023-03-27T15:03:18.669Z,1.13
2023-03-27T15:06:04.318Z,0.65
2023-03-27T15:08:46.350Z,0.85
2023-03-27T15:11:37.176Z,0.50
2023-03-27T15:14:18.332Z,0.57
2023-03-27T15:16:58.227Z,0.68
2023-03-27T15:19:29.985Z,0.32
2023-03-27T15:22:11.982Z,0.40
2023-03-27T15:24:56.084Z,0.40
2023-03-27T15:27:37.968Z,0.32
2023-03-27T15:30:31.841Z,0.52
2023-03-27T15:33:01.991Z,0.63
2023-03-27T15:35:35.809Z,0.85
2023-03-27T15:38:05.390Z,0.50
2023-03-27T15:40:41.848Z,0.80
2023-03-27T15:43:18.197Z,0.50
2023-03-27T15:46:00.026Z,0.57
2023-03-27T15:48:32.068Z,0.70
2023-03-27T15:51:07.241Z,0.82
2023-03-27T15:53:58.900Z,0.57
2023-03-27T15:56:41.259Z,0.77
2023-03-27T16:01:37.413Z,0.70
2023-03-27T16:04:12.633Z,0.82
2023-03-27T16:06:41.982Z,0.70
2023-03-27T16:09:23.598Z,0.88
2023-03-27T16:11:57.398Z,0.90
2023-03-27T16:14:41.759Z,0.60
2023-03-27T16:17:08.929Z,0.70
2023-03-27T16:19:49.004Z,0.65
2023-03-27T16:22:21.373Z,0.93
2023-03-27T16:27:15.417Z,0.40
2023-03-27T16:29:43.821Z,0.50
2023-03-27T16:32:13.215Z,0.52
2023-03-27T16:34:50.154Z,1.05
2023-03-27T16:37:22.616Z,0.40
2023-03-27T16:42:22.640Z,0.70
2023-03-27T16:44:52.994Z,0.40
2023-03-27T16:47:20.460Z,0.65
2023-03-27T16:49:56.187Z,0.60
2023-03-27T16:52:36.712Z,0.43
2023-03-27T16:55:06.984Z,0.80
2023-03-27T16:57:38.413Z,0.95
2023-03-27T17:00:06.165Z,0.90
2023-03-27T17:02:37.466Z,0.98
2023-03-27T17:05:06.618Z,1.13
2023-03-27T17:07:33.678Z,0.80
2023-03-27T17:10:00.601Z,0.63
2023-03-27T17:12:37.163Z,0.77
2023-03-27T17:15:08.055Z,1.02
2023-03-27T17:17:48.319Z,0.60
2023-03-27T17:20:18.155Z,1.02
2023-03-27T17:22:46.670Z,0.65
2023-03-27T17:25:13.281Z,0.60
2023-03-27T17:27:44.070Z,0.70
2023-03-27T17:30:11.011Z,1.20
2023-03-27T17:32:47.975Z,1.00
2023-03-27T17:35:15.868Z,1.33
2023-03-27T17:37:44.829Z,1.00
2023-03-27T17:40:13.681Z,0.80
2023-03-27T17:42:48.284Z,0.60
2023-03-27T17:45:18.813Z,0.80
2023-03-27T17:47:45.398Z,1.13
2023-03-27T17:50:16.191Z,0.88
2023-03-27T17:52:42.790Z,1.00
2023-03-27T17:55:09.488Z,0.73
2023-03-27T17:57:47.343Z,1.17
2023-03-27T18:00:24.062Z,0.77
2023-03-27T18:02:55.047Z,0.70
2023-03-27T18:07:51.655Z,0.80
2023-03-27T18:10:21.153Z,1.20
2023-03-27T18:12:52.354Z,1.00
2023-03-27T18:15:18.978Z,0.80
2023-03-27T18:17:52.815Z,0.80
2023-03-27T18:20:24.383Z,0.95
2023-03-27T18:22:50.937Z,0.93
2023-03-27T18:25:17.536Z,0.82
2023-03-27T18:27:46.529Z,0.90
2023-03-27T18:30:17.314Z,1.10
2023-03-27T18:32:51.470Z,1.27
2023-03-27T18:35:19.723Z,1.30
2023-03-27T18:37:58.459Z,1.30
2023-03-27T18:40:27.499Z,1.10
2023-03-27T18:42:54.168Z,0.82
2023-03-27T18:45:26.241Z,1.35
2023-03-27T18:47:52.917Z,1.67
2023-03-27T18:50:21.967Z,1.13
2023-03-27T18:52:50.787Z,1.50
2023-03-27T18:55:17.736Z,1.63
2023-03-27T18:57:46.353Z,1.42
2023-03-27T19:00:21.812Z,1.17
2023-03-27T19:02:51.002Z,1.52
2023-03-27T19:05:20.781Z,1.48
2023-03-27T19:07:47.386Z,1.48
2023-03-27T19:10:16.322Z,1.23
2023-03-27T19:15:36.970Z,0.88
2023-03-27T19:18:09.061Z,1.30
2023-03-27T19:20:57.176Z,1.30
2023-03-27T19:23:47.197Z,1.73
2023-03-27T19:26:20.802Z,1.02
2023-03-27T19:28:49.846Z,1.25
2023-03-27T19:31:20.731Z,1.17
2023-03-27T19:33:47.321Z,1.02
2023-03-27T19:36:14.049Z,1.23
2023-03-27T19:38:40.958Z,1.30
2023-03-27T19:41:09.463Z,1.10
2023-03-27T19:43:39.120Z,1.25
2023-03-27T19:46:15.572Z,1.02
2023-03-27T19:48:47.352Z,1.27
2023-03-27T19:51:22.707Z,1.30
2023-03-27T19:53:59.654Z,1.35
2023-03-27T19:56:27.132Z,1.70
2023-03-27T19:58:56.486Z,0.95
2023-03-27T20:01:28.710Z,0.90
2023-03-27T20:06:25.782Z,1.13
2023-03-27T20:08:56.081Z,1.02
2023-03-27T20:11:32.435Z,1.10
2023-03-27T20:13:59.537Z,1.48
2023-03-27T20:16:28.158Z,1.50
2023-03-27T20:19:07.574Z,1.48
2023-03-27T20:21:41.979Z,1.38
2023-03-27T20:24:13.828Z,1.45
2023-03-27T20:26:49.317Z,1.70
2023-03-27T20:29:22.633Z,1.55
2023-03-27T20:31:51.961Z,1.88
2023-03-27T20:34:22.141Z,1.27
2023-03-27T20:36:52.704Z,1.30
2023-03-27T20:39:33.176Z,1.38
2023-03-27T20:41:59.760Z,1.30
2023-03-27T20:44:35.326Z,1.40
2023-03-27T20:47:12.647Z,1.20
2023-03-27T20:49:43.726Z,1.20
2023-03-27T20:52:22.951Z,1.65
2023-03-27T20:54:51.741Z,1.60
2023-03-27T20:57:22.055Z,1.23
2023-03-27T20:59:48.639Z,1.38
2023-03-27T21:02:18.269Z,1.67
2023-03-27T21:04:47.596Z,1.73
2023-03-27T21:07:15.654Z,1.20
2023-03-27T21:09:44.720Z,1.33
2023-03-27T21:12:15.791Z,1.15
2023-03-27T21:14:53.445Z,1.38
2023-03-27T21:17:24.518Z,1.42
2023-03-27T21:19:54.745Z,1.10
2023-03-27T21:22:26.126Z,1.15
2023-03-27T21:24:52.760Z,1.48
2023-03-27T21:27:26.029Z,1.70
2023-03-27T21:29:52.597Z,1.33
2023-03-27T21:32:21.405Z,0.90
2023-03-27T21:34:48.920Z,1.50
2023-03-27T21:37:20.215Z,1.67
2023-03-27T21:39:51.090Z,1.30
2023-03-27T21:42:21.706Z,1.50
2023-03-27T21:44:57.533Z,1.20
2023-03-27T21:47:40.805Z,1.27
2023-03-27T21:50:11.833Z,0.85
2023-03-27T21:52:40.216Z,1.40
2023-03-27T21:55:07.033Z,1.40
2023-03-27T21:57:33.599Z,1.80
2023-03-27T22:00:00.143Z,1.40
2023-03-27T22:02:26.751Z,1.65
2023-03-27T22:04:58.745Z,1.83
2023-03-27T22:07:27.628Z,1.70
2023-03-27T22:09:54.189Z,1.75
2023-03-27T22:12:28.190Z,1.67
2023-03-27T22:14:57.904Z,1.35
2023-03-27T22:17:28.570Z,1.83
2023-03-27T22:19:59.062Z,1.58
2023-03-27T22:22:29.301Z,1.70
2023-03-27T22:24:58.309Z,1.20
2023-03-27T22:27:29.995Z,1.30
2023-03-27T22:30:10.596Z,2.15
2023-03-27T22:32:43.105Z,1.30
2023-03-27T22:35:15.616Z,1.83
2023-03-27T22:37:44.822Z,1.55
2023-03-27T22:40:13.202Z,1.30
2023-03-27T22:42:42.508Z,1.92
2023-03-27T22:45:12.561Z,1.55
2023-03-27T22:47:40.430Z,1.70
2023-03-27T22:50:09.945Z,1.67
2023-03-27T22:52:41.550Z,1.35
2023-03-27T22:55:11.335Z,1.67
2023-03-27T22:57:45.295Z,1.70
2023-03-27T23:00:21.104Z,1.98
2023-03-27T23:02:50.235Z,1.50
2023-03-27T23:05:17.854Z,1.77
2023-03-27T23:07:47.187Z,1.23
2023-03-27T23:10:17.545Z,1.95
2023-03-27T23:12:48.849Z,1.65
2023-03-27T23:15:17.849Z,1.77
2023-03-27T23:17:57.197Z,2.35
2023-03-27T23:20:23.867Z,1.40
2023-03-27T23:22:53.077Z,1.60
2023-03-27T23:25:22.871Z,1.58
2023-03-27T23:27:49.578Z,1.55
2023-03-27T23:30:16.335Z,1.65
2023-03-27T23:32:42.993Z,1.50
2023-03-27T23:35:11.928Z,1.85
2023-03-27T23:37:40.511Z,1.92
2023-03-27T23:40:07.900Z,1.52
2023-03-27T23:42:36.629Z,1.30
2023-03-27T23:45:05.727Z,1.90
2023-03-27T23:47:34.960Z,1.40
2023-03-27T23:50:01.984Z,1.50
2023-03-27T23:52:28.536Z,1.85
2023-03-27T23:54:57.335Z,1.70
2023-03-27T23:57:26.098Z,1.30
2023-03-27T23:59:55.176Z,1.75
